sensor_id;sensor_type;location;lat;lon;timestamp;temperature;humidity
23289;DHT22;11813;50.834;4.280;2023-11-21T00:02:14;11.70;99.90
23289;DHT22;11813;50.834;4.280;2023-11-21T00:04:39;11.70;99.90
23289;DHT22;11813;50.834;4.280;2023-11-21T00:07:05;11.70;99.90
23289;DHT22;11813;50.834;4.280;2023-11-21T00:09:34;11.70;99.90
23289;DHT22;11813;50.834;4.280;2023-11-21T00:12:02;11.70;99.90
23289;DHT22;11813;50.834;4.280;2023-11-21T00:14:27;11.60;99.90
23289;DHT22;11813;50.834;4.280;2023-11-21T00:16:53;11.60;99.90
23289;DHT22;11813;50.834;4.280;2023-11-21T00:19:19;11.60;99.90
23289;DHT22;11813;50.834;4.280;2023-11-21T00:21:45;11.60;99.90
23289;DHT22;11813;50.834;4.280;2023-11-21T00:24:12;11.60;99.90
23289;DHT22;11813;50.834;4.280;2023-11-21T00:26:40;11.50;99.90
23289;DHT22;11813;50.834;4.280;2023-11-21T00:29:06;11.50;99.90
23289;DHT22;11813;50.834;4.280;2023-11-21T00:31:34;11.50;99.90
23289;DHT22;11813;50.834;4.280;2023-11-21T00:33:59;11.50;99.90
23289;DHT22;11813;50.834;4.280;2023-11-21T00:36:25;11.50;99.90
23289;DHT22;11813;50.834;4.280;2023-11-21T00:38:51;11.50;99.90
23289;DHT22;11813;50.834;4.280;2023-11-21T00:41:17;11.40;99.90
23289;DHT22;11813;50.834;4.280;2023-11-21T00:43:42;11.40;99.90
23289;DHT22;11813;50.834;4.280;2023-11-21T00:46:09;11.40;99.90
23289;DHT22;11813;50.834;4.280;2023-11-21T00:48:34;11.30;99.90
23289;DHT22;11813;50.834;4.280;2023-11-21T00:51:00;11.30;99.90
23289;DHT22;11813;50.834;4.280;2023-11-21T00:53:26;11.20;99.90
23289;DHT22;11813;50.834;4.280;2023-11-21T00:55:52;11.20;99.90
23289;DHT22;11813;50.834;4.280;2023-11-21T00:58:23;11.10;99.90
23289;DHT22;11813;50.834;4.280;2023-11-21T01:00:48;11.10;99.90
23289;DHT22;11813;50.834;4.280;2023-11-21T01:03:14;11.10;99.90
23289;DHT22;11813;50.834;4.280;2023-11-21T01:05:39;11.10;99.90
23289;DHT22;11813;50.834;4.280;2023-11-21T01:08:05;11.00;99.90
23289;DHT22;11813;50.834;4.280;2023-11-21T01:10:31;11.00;99.90
23289;DHT22;11813;50.834;4.280;2023-11-21T01:12:56;11.00;99.90
23289;DHT22;11813;50.834;4.280;2023-11-21T01:15:23;11.00;99.90
23289;DHT22;11813;50.834;4.280;2023-11-21T01:17:51;11.00;99.90
23289;DHT22;11813;50.834;4.280;2023-11-21T01:20:17;11.00;99.90
23289;DHT22;11813;50.834;4.280;2023-11-21T01:22:43;11.10;99.90
23289;DHT22;11813;50.834;4.280;2023-11-21T01:25:10;11.10;99.90
23289;DHT22;11813;50.834;4.280;2023-11-21T01:27:36;11.10;99.90
23289;DHT22;11813;50.834;4.280;2023-11-21T01:30:03;11.20;99.90
23289;DHT22;11813;50.834;4.280;2023-11-21T01:32:30;11.20;99.90
23289;DHT22;11813;50.834;4.280;2023-11-21T01:34:55;11.20;99.90
23289;DHT22;11813;50.834;4.280;2023-11-21T01:37:21;11.20;99.90
23289;DHT22;11813;50.834;4.280;2023-11-21T01:39:47;11.20;99.90
23289;DHT22;11813;50.834;4.280;2023-11-21T01:42:13;11.20;99.90
23289;DHT22;11813;50.834;4.280;2023-11-21T01:44:39;11.20;99.90
23289;DHT22;11813;50.834;4.280;2023-11-21T01:47:06;11.20;99.90
23289;DHT22;11813;50.834;4.280;2023-11-21T01:49:32;11.20;99.90
23289;DHT22;11813;50.834;4.280;2023-11-21T01:51:59;11.20;99.90
23289;DHT22;11813;50.834;4.280;2023-11-21T01:54:25;11.30;99.90
23289;DHT22;11813;50.834;4.280;2023-11-21T01:56:51;11.30;99.90
23289;DHT22;11813;50.834;4.280;2023-11-21T01:59:20;11.30;99.90
23289;DHT22;11813;50.834;4.280;2023-11-21T02:01:46;11.30;99.90
23289;DHT22;11813;50.834;4.280;2023-11-21T02:04:13;11.20;99.90
23289;DHT22;11813;50.834;4.280;2023-11-21T02:06:39;11.20;99.90
23289;DHT22;11813;50.834;4.280;2023-11-21T02:09:04;11.30;99.90
23289;DHT22;11813;50.834;4.280;2023-11-21T02:11:30;11.20;99.90
23289;DHT22;11813;50.834;4.280;2023-11-21T02:13:58;11.10;99.90
23289;DHT22;11813;50.834;4.280;2023-11-21T02:16:24;11.10;99.90
23289;DHT22;11813;50.834;4.280;2023-11-21T02:18:51;11.20;99.90
23289;DHT22;11813;50.834;4.280;2023-11-21T02:21:17;11.10;99.90
23289;DHT22;11813;50.834;4.280;2023-11-21T02:23:44;11.00;99.90
23289;DHT22;11813;50.834;4.280;2023-11-21T02:26:12;11.00;99.90
23289;DHT22;11813;50.834;4.280;2023-11-21T02:28:38;10.90;99.90
23289;DHT22;11813;50.834;4.280;2023-11-21T02:31:04;11.00;99.90
23289;DHT22;11813;50.834;4.280;2023-11-21T02:33:30;11.00;99.90
23289;DHT22;11813;50.834;4.280;2023-11-21T02:36:00;11.10;99.90
23289;DHT22;11813;50.834;4.280;2023-11-21T02:38:26;11.10;99.90
23289;DHT22;11813;50.834;4.280;2023-11-21T02:40:51;11.10;99.90
23289;DHT22;11813;50.834;4.280;2023-11-21T02:43:17;11.20;99.90
23289;DHT22;11813;50.834;4.280;2023-11-21T02:45:43;11.20;99.90
23289;DHT22;11813;50.834;4.280;2023-11-21T02:48:08;11.20;99.90
23289;DHT22;11813;50.834;4.280;2023-11-21T02:50:34;11.20;99.90
23289;DHT22;11813;50.834;4.280;2023-11-21T02:53:01;11.20;99.90
23289;DHT22;11813;50.834;4.280;2023-11-21T02:55:27;11.20;99.90
23289;DHT22;11813;50.834;4.280;2023-11-21T02:57:53;11.20;99.90
23289;DHT22;11813;50.834;4.280;2023-11-21T03:00:19;11.20;99.90
23289;DHT22;11813;50.834;4.280;2023-11-21T03:02:45;11.30;99.90
23289;DHT22;11813;50.834;4.280;2023-11-21T03:05:13;11.20;99.90
23289;DHT22;11813;50.834;4.280;2023-11-21T03:07:39;11.20;99.90
23289;DHT22;11813;50.834;4.280;2023-11-21T03:10:06;11.20;99.90
23289;DHT22;11813;50.834;4.280;2023-11-21T03:12:34;11.10;99.90
23289;DHT22;11813;50.834;4.280;2023-11-21T03:15:00;11.10;99.90
23289;DHT22;11813;50.834;4.280;2023-11-21T03:17:27;11.10;99.90
23289;DHT22;11813;50.834;4.280;2023-11-21T03:19:54;11.10;99.90
23289;DHT22;11813;50.834;4.280;2023-11-21T03:22:20;11.00;99.90
23289;DHT22;11813;50.834;4.280;2023-11-21T03:24:45;10.90;99.90
23289;DHT22;11813;50.834;4.280;2023-11-21T03:27:11;10.90;99.90
23289;DHT22;11813;50.834;4.280;2023-11-21T03:29:37;10.90;99.90
23289;DHT22;11813;50.834;4.280;2023-11-21T03:32:03;10.80;99.90
23289;DHT22;11813;50.834;4.280;2023-11-21T03:34:29;10.80;99.90
23289;DHT22;11813;50.834;4.280;2023-11-21T03:36:54;10.90;99.90
23289;DHT22;11813;50.834;4.280;2023-11-21T03:39:20;10.80;99.90
23289;DHT22;11813;50.834;4.280;2023-11-21T03:41:46;11.00;99.90
23289;DHT22;11813;50.834;4.280;2023-11-21T03:44:13;11.10;99.90
23289;DHT22;11813;50.834;4.280;2023-11-21T03:46:38;11.10;99.90
23289;DHT22;11813;50.834;4.280;2023-11-21T03:49:04;11.10;99.90
23289;DHT22;11813;50.834;4.280;2023-11-21T03:51:30;11.10;99.90
23289;DHT22;11813;50.834;4.280;2023-11-21T03:53:55;11.20;99.90
23289;DHT22;11813;50.834;4.280;2023-11-21T03:56:21;11.20;99.90
23289;DHT22;11813;50.834;4.280;2023-11-21T03:58:49;11.30;99.90
23289;DHT22;11813;50.834;4.280;2023-11-21T04:01:24;11.20;99.90
23289;DHT22;11813;50.834;4.280;2023-11-21T04:03:50;11.30;99.90
23289;DHT22;11813;50.834;4.280;2023-11-21T04:06:17;11.30;99.90
23289;DHT22;11813;50.834;4.280;2023-11-21T04:08:45;11.40;99.90
23289;DHT22;11813;50.834;4.280;2023-11-21T04:11:12;11.30;99.90
23289;DHT22;11813;50.834;4.280;2023-11-21T04:13:40;11.40;99.90
23289;DHT22;11813;50.834;4.280;2023-11-21T04:16:08;11.30;99.90
23289;DHT22;11813;50.834;4.280;2023-11-21T04:18:37;11.40;99.90
23289;DHT22;11813;50.834;4.280;2023-11-21T04:21:04;11.40;99.90
23289;DHT22;11813;50.834;4.280;2023-11-21T04:23:30;11.40;99.90
23289;DHT22;11813;50.834;4.280;2023-11-21T04:25:57;11.50;99.90
23289;DHT22;11813;50.834;4.280;2023-11-21T04:28:23;11.50;99.90
23289;DHT22;11813;50.834;4.280;2023-11-21T04:30:50;11.50;99.90
23289;DHT22;11813;50.834;4.280;2023-11-21T04:33:15;11.40;99.90
23289;DHT22;11813;50.834;4.280;2023-11-21T04:35:41;11.40;99.90
23289;DHT22;11813;50.834;4.280;2023-11-21T04:38:07;11.40;99.90
23289;DHT22;11813;50.834;4.280;2023-11-21T04:40:33;11.50;99.90
23289;DHT22;11813;50.834;4.280;2023-11-21T04:42:58;11.50;99.90
23289;DHT22;11813;50.834;4.280;2023-11-21T04:45:24;11.40;99.90
23289;DHT22;11813;50.834;4.280;2023-11-21T04:47:50;11.40;99.90
23289;DHT22;11813;50.834;4.280;2023-11-21T04:50:15;11.40;99.90
23289;DHT22;11813;50.834;4.280;2023-11-21T04:52:41;11.50;99.90
23289;DHT22;11813;50.834;4.280;2023-11-21T04:55:07;11.50;99.90
23289;DHT22;11813;50.834;4.280;2023-11-21T04:57:36;11.60;99.90
23289;DHT22;11813;50.834;4.280;2023-11-21T05:00:01;11.60;99.90
23289;DHT22;11813;50.834;4.280;2023-11-21T05:02:31;11.60;99.90
23289;DHT22;11813;50.834;4.280;2023-11-21T05:04:57;11.60;99.90
23289;DHT22;11813;50.834;4.280;2023-11-21T05:07:22;11.60;99.90
23289;DHT22;11813;50.834;4.280;2023-11-21T05:09:48;11.60;99.90
23289;DHT22;11813;50.834;4.280;2023-11-21T05:12:14;11.60;99.90
23289;DHT22;11813;50.834;4.280;2023-11-21T05:14:40;11.50;99.90
23289;DHT22;11813;50.834;4.280;2023-11-21T05:17:05;11.60;99.90
23289;DHT22;11813;50.834;4.280;2023-11-21T05:19:31;11.60;99.90
23289;DHT22;11813;50.834;4.280;2023-11-21T05:21:58;11.50;99.90
23289;DHT22;11813;50.834;4.280;2023-11-21T05:24:25;11.60;99.90
23289;DHT22;11813;50.834;4.280;2023-11-21T05:26:51;11.60;99.90
23289;DHT22;11813;50.834;4.280;2023-11-21T05:29:17;11.60;99.90
23289;DHT22;11813;50.834;4.280;2023-11-21T05:31:42;11.60;99.90
23289;DHT22;11813;50.834;4.280;2023-11-21T05:34:08;11.60;99.90
23289;DHT22;11813;50.834;4.280;2023-11-21T05:36:33;11.60;99.90
23289;DHT22;11813;50.834;4.280;2023-11-21T05:38:59;11.60;99.90
23289;DHT22;11813;50.834;4.280;2023-11-21T05:41:24;11.60;99.90
23289;DHT22;11813;50.834;4.280;2023-11-21T05:43:51;11.70;99.90
23289;DHT22;11813;50.834;4.280;2023-11-21T05:46:16;11.70;99.90
23289;DHT22;11813;50.834;4.280;2023-11-21T05:48:43;11.70;99.90
23289;DHT22;11813;50.834;4.280;2023-11-21T05:51:09;11.80;99.90
23289;DHT22;11813;50.834;4.280;2023-11-21T05:53:34;11.80;99.90
23289;DHT22;11813;50.834;4.280;2023-11-21T05:56:00;11.70;99.90
23289;DHT22;11813;50.834;4.280;2023-11-21T05:58:26;11.80;99.90
23289;DHT22;11813;50.834;4.280;2023-11-21T06:00:51;11.70;99.90
23289;DHT22;11813;50.834;4.280;2023-11-21T06:03:17;11.70;99.90
23289;DHT22;11813;50.834;4.280;2023-11-21T06:05:42;11.80;99.90
23289;DHT22;11813;50.834;4.280;2023-11-21T06:08:08;11.80;99.90
23289;DHT22;11813;50.834;4.280;2023-11-21T06:10:34;11.70;99.90
23289;DHT22;11813;50.834;4.280;2023-11-21T06:13:00;11.70;99.90
23289;DHT22;11813;50.834;4.280;2023-11-21T06:15:25;11.80;99.90
23289;DHT22;11813;50.834;4.280;2023-11-21T06:17:51;11.80;99.90
23289;DHT22;11813;50.834;4.280;2023-11-21T06:20:20;11.70;99.90
23289;DHT22;11813;50.834;4.280;2023-11-21T06:22:48;11.70;99.90
23289;DHT22;11813;50.834;4.280;2023-11-21T06:25:14;11.70;99.90
23289;DHT22;11813;50.834;4.280;2023-11-21T06:27:43;11.70;99.90
23289;DHT22;11813;50.834;4.280;2023-11-21T06:30:11;11.80;99.90
23289;DHT22;11813;50.834;4.280;2023-11-21T06:32:37;11.80;99.90
23289;DHT22;11813;50.834;4.280;2023-11-21T06:35:04;11.80;99.90
23289;DHT22;11813;50.834;4.280;2023-11-21T06:37:31;11.80;99.90
23289;DHT22;11813;50.834;4.280;2023-11-21T06:39:58;11.80;99.90
23289;DHT22;11813;50.834;4.280;2023-11-21T06:42:24;11.80;99.90
23289;DHT22;11813;50.834;4.280;2023-11-21T06:44:50;11.80;99.90
23289;DHT22;11813;50.834;4.280;2023-11-21T06:47:17;11.60;99.90
23289;DHT22;11813;50.834;4.280;2023-11-21T06:49:43;11.60;99.90
23289;DHT22;11813;50.834;4.280;2023-11-21T06:52:09;11.50;99.90
23289;DHT22;11813;50.834;4.280;2023-11-21T06:54:35;11.50;99.90
23289;DHT22;11813;50.834;4.280;2023-11-21T06:57:02;11.50;99.90
23289;DHT22;11813;50.834;4.280;2023-11-21T06:59:31;11.40;99.90
23289;DHT22;11813;50.834;4.280;2023-11-21T07:01:57;11.50;99.90
23289;DHT22;11813;50.834;4.280;2023-11-21T07:04:23;11.60;99.90
23289;DHT22;11813;50.834;4.280;2023-11-21T07:06:53;11.60;99.90
23289;DHT22;11813;50.834;4.280;2023-11-21T07:09:19;11.70;99.90
23289;DHT22;11813;50.834;4.280;2023-11-21T07:11:50;11.60;99.90
23289;DHT22;11813;50.834;4.280;2023-11-21T07:14:15;11.60;99.90
23289;DHT22;11813;50.834;4.280;2023-11-21T07:16:42;11.60;99.90
23289;DHT22;11813;50.834;4.280;2023-11-21T07:19:08;11.70;99.90
23289;DHT22;11813;50.834;4.280;2023-11-21T07:21:35;11.70;99.90
23289;DHT22;11813;50.834;4.280;2023-11-21T07:24:04;11.80;99.90
23289;DHT22;11813;50.834;4.280;2023-11-21T07:26:32;11.80;99.90
23289;DHT22;11813;50.834;4.280;2023-11-21T07:28:59;11.70;99.90
23289;DHT22;11813;50.834;4.280;2023-11-21T07:31:24;11.70;99.90
23289;DHT22;11813;50.834;4.280;2023-11-21T07:33:50;11.70;99.90
23289;DHT22;11813;50.834;4.280;2023-11-21T07:36:17;11.80;99.90
23289;DHT22;11813;50.834;4.280;2023-11-21T07:38:48;11.80;99.90
23289;DHT22;11813;50.834;4.280;2023-11-21T07:41:14;11.70;99.90
23289;DHT22;11813;50.834;4.280;2023-11-21T07:43:43;11.70;99.90
23289;DHT22;11813;50.834;4.280;2023-11-21T07:46:10;11.70;99.90
23289;DHT22;11813;50.834;4.280;2023-11-21T07:48:35;11.80;99.90
23289;DHT22;11813;50.834;4.280;2023-11-21T07:51:02;11.70;99.90
23289;DHT22;11813;50.834;4.280;2023-11-21T07:53:31;11.70;99.90
23289;DHT22;11813;50.834;4.280;2023-11-21T07:55:57;11.80;99.90
23289;DHT22;11813;50.834;4.280;2023-11-21T07:58:23;11.80;99.90
23289;DHT22;11813;50.834;4.280;2023-11-21T08:00:49;11.80;99.90
23289;DHT22;11813;50.834;4.280;2023-11-21T08:03:15;11.70;99.90
23289;DHT22;11813;50.834;4.280;2023-11-21T08:05:41;11.70;99.90
23289;DHT22;11813;50.834;4.280;2023-11-21T08:08:07;11.70;99.90
23289;DHT22;11813;50.834;4.280;2023-11-21T08:10:33;11.70;99.90
23289;DHT22;11813;50.834;4.280;2023-11-21T08:12:59;11.60;99.90
23289;DHT22;11813;50.834;4.280;2023-11-21T08:15:24;11.50;99.90
23289;DHT22;11813;50.834;4.280;2023-11-21T08:17:50;11.50;99.90
23289;DHT22;11813;50.834;4.280;2023-11-21T08:20:16;11.60;99.90
23289;DHT22;11813;50.834;4.280;2023-11-21T08:22:44;11.70;99.90
23289;DHT22;11813;50.834;4.280;2023-11-21T08:25:10;11.80;99.90
23289;DHT22;11813;50.834;4.280;2023-11-21T08:27:36;11.80;99.90
23289;DHT22;11813;50.834;4.280;2023-11-21T08:30:05;11.80;99.90
23289;DHT22;11813;50.834;4.280;2023-11-21T08:32:32;11.90;99.90
23289;DHT22;11813;50.834;4.280;2023-11-21T08:34:59;11.90;99.90
23289;DHT22;11813;50.834;4.280;2023-11-21T08:37:25;11.90;99.90
23289;DHT22;11813;50.834;4.280;2023-11-21T08:39:52;12.00;99.90
23289;DHT22;11813;50.834;4.280;2023-11-21T08:42:18;12.00;99.90
23289;DHT22;11813;50.834;4.280;2023-11-21T08:44:44;12.00;99.90
23289;DHT22;11813;50.834;4.280;2023-11-21T08:47:09;12.00;99.90
23289;DHT22;11813;50.834;4.280;2023-11-21T08:49:35;12.10;99.90
23289;DHT22;11813;50.834;4.280;2023-11-21T08:52:01;12.10;99.90
23289;DHT22;11813;50.834;4.280;2023-11-21T08:54:26;12.10;99.90
23289;DHT22;11813;50.834;4.280;2023-11-21T08:56:53;12.20;99.90
23289;DHT22;11813;50.834;4.280;2023-11-21T08:59:18;12.20;99.90
23289;DHT22;11813;50.834;4.280;2023-11-21T09:01:45;12.20;99.90
23289;DHT22;11813;50.834;4.280;2023-11-21T09:04:12;12.20;99.90
23289;DHT22;11813;50.834;4.280;2023-11-21T09:06:38;12.20;99.90
23289;DHT22;11813;50.834;4.280;2023-11-21T09:09:04;12.20;99.90
23289;DHT22;11813;50.834;4.280;2023-11-21T09:11:31;12.20;99.90
23289;DHT22;11813;50.834;4.280;2023-11-21T09:13:59;12.30;99.90
23289;DHT22;11813;50.834;4.280;2023-11-21T09:16:25;12.30;99.90
23289;DHT22;11813;50.834;4.280;2023-11-21T09:18:51;12.30;99.90
23289;DHT22;11813;50.834;4.280;2023-11-21T09:21:16;12.30;99.90
23289;DHT22;11813;50.834;4.280;2023-11-21T09:23:44;12.30;99.90
23289;DHT22;11813;50.834;4.280;2023-11-21T09:26:10;12.20;99.90
23289;DHT22;11813;50.834;4.280;2023-11-21T09:28:35;12.20;99.90
23289;DHT22;11813;50.834;4.280;2023-11-21T09:31:03;12.30;99.90
23289;DHT22;11813;50.834;4.280;2023-11-21T09:33:30;12.30;99.90
23289;DHT22;11813;50.834;4.280;2023-11-21T09:35:57;12.40;99.90
23289;DHT22;11813;50.834;4.280;2023-11-21T09:38:23;12.40;99.90
23289;DHT22;11813;50.834;4.280;2023-11-21T09:40:48;12.40;99.90
23289;DHT22;11813;50.834;4.280;2023-11-21T09:43:18;12.40;99.90
23289;DHT22;11813;50.834;4.280;2023-11-21T09:45:48;12.50;99.90
23289;DHT22;11813;50.834;4.280;2023-11-21T09:48:17;12.40;99.90
23289;DHT22;11813;50.834;4.280;2023-11-21T09:50:43;12.40;99.90
23289;DHT22;11813;50.834;4.280;2023-11-21T09:53:13;12.40;99.90
23289;DHT22;11813;50.834;4.280;2023-11-21T09:55:44;12.40;99.90
23289;DHT22;11813;50.834;4.280;2023-11-21T09:58:10;12.30;99.90
23289;DHT22;11813;50.834;4.280;2023-11-21T10:00:46;12.40;99.90
23289;DHT22;11813;50.834;4.280;2023-11-21T10:03:13;12.30;99.90
23289;DHT22;11813;50.834;4.280;2023-11-21T10:05:41;12.20;99.90
23289;DHT22;11813;50.834;4.280;2023-11-21T10:08:09;12.10;99.90
23289;DHT22;11813;50.834;4.280;2023-11-21T10:10:38;12.20;99.90
23289;DHT22;11813;50.834;4.280;2023-11-21T10:13:11;12.20;99.90
23289;DHT22;11813;50.834;4.280;2023-11-21T10:15:38;12.10;99.90
23289;DHT22;11813;50.834;4.280;2023-11-21T10:18:04;12.00;99.90
23289;DHT22;11813;50.834;4.280;2023-11-21T10:20:32;12.00;99.90
23289;DHT22;11813;50.834;4.280;2023-11-21T10:22:59;12.10;99.90
23289;DHT22;11813;50.834;4.280;2023-11-21T10:25:28;12.20;99.90
23289;DHT22;11813;50.834;4.280;2023-11-21T10:28:03;12.30;99.90
23289;DHT22;11813;50.834;4.280;2023-11-21T10:30:36;12.40;99.90
23289;DHT22;11813;50.834;4.280;2023-11-21T10:33:04;12.40;99.90
23289;DHT22;11813;50.834;4.280;2023-11-21T10:38:05;12.70;99.90
23289;DHT22;11813;50.834;4.280;2023-11-21T10:40:31;12.70;99.90
23289;DHT22;11813;50.834;4.280;2023-11-21T10:43:06;12.80;99.90
23289;DHT22;11813;50.834;4.280;2023-11-21T10:45:31;12.90;99.90
23289;DHT22;11813;50.834;4.280;2023-11-21T10:47:57;13.00;99.90
23289;DHT22;11813;50.834;4.280;2023-11-21T10:50:23;13.00;99.90
23289;DHT22;11813;50.834;4.280;2023-11-21T10:52:51;13.10;99.90
23289;DHT22;11813;50.834;4.280;2023-11-21T10:55:20;13.20;99.90
23289;DHT22;11813;50.834;4.280;2023-11-21T10:57:49;13.20;99.90
23289;DHT22;11813;50.834;4.280;2023-11-21T11:00:16;13.30;99.90
23289;DHT22;11813;50.834;4.280;2023-11-21T11:02:46;13.30;99.90
23289;DHT22;11813;50.834;4.280;2023-11-21T11:05:14;13.20;99.90
23289;DHT22;11813;50.834;4.280;2023-11-21T11:07:42;13.20;99.90
23289;DHT22;11813;50.834;4.280;2023-11-21T11:10:09;13.10;99.90
23289;DHT22;11813;50.834;4.280;2023-11-21T11:12:41;13.20;99.90
23289;DHT22;11813;50.834;4.280;2023-11-21T11:15:08;13.40;99.90
23289;DHT22;11813;50.834;4.280;2023-11-21T11:17:37;13.20;99.90
23289;DHT22;11813;50.834;4.280;2023-11-21T11:20:05;13.30;99.90
23289;DHT22;11813;50.834;4.280;2023-11-21T11:25:46;13.20;99.90
23289;DHT22;11813;50.834;4.280;2023-11-21T11:34:01;13.50;99.90
23289;DHT22;11813;50.834;4.280;2023-11-21T11:36:55;13.50;99.90
23289;DHT22;11813;50.834;4.280;2023-11-21T11:42:03;13.40;99.90
23289;DHT22;11813;50.834;4.280;2023-11-21T11:55:15;13.10;99.90
23289;DHT22;11813;50.834;4.280;2023-11-21T11:57:44;13.10;99.90
23289;DHT22;11813;50.834;4.280;2023-11-21T12:00:14;13.20;99.90
23289;DHT22;11813;50.834;4.280;2023-11-21T12:02:52;13.20;99.90
23289;DHT22;11813;50.834;4.280;2023-11-21T12:05:19;13.30;99.90
23289;DHT22;11813;50.834;4.280;2023-11-21T12:10:16;13.30;99.90
23289;DHT22;11813;50.834;4.280;2023-11-21T12:12:57;13.40;99.90
23289;DHT22;11813;50.834;4.280;2023-11-21T12:15:24;13.30;99.90
23289;DHT22;11813;50.834;4.280;2023-11-21T12:17:51;13.30;99.90
23289;DHT22;11813;50.834;4.280;2023-11-21T12:20:22;13.30;99.90
23289;DHT22;11813;50.834;4.280;2023-11-21T12:22:49;13.40;99.90
23289;DHT22;11813;50.834;4.280;2023-11-21T12:25:23;13.30;99.90
23289;DHT22;11813;50.834;4.280;2023-11-21T12:27:50;13.20;99.90
23289;DHT22;11813;50.834;4.280;2023-11-21T12:30:18;13.10;99.90
23289;DHT22;11813;50.834;4.280;2023-11-21T12:32:44;12.90;99.90
23289;DHT22;11813;50.834;4.280;2023-11-21T12:35:13;12.90;99.90
23289;DHT22;11813;50.834;4.280;2023-11-21T12:37:40;12.90;99.90
23289;DHT22;11813;50.834;4.280;2023-11-21T12:40:09;12.90;99.90
23289;DHT22;11813;50.834;4.280;2023-11-21T12:42:41;12.90;99.90
23289;DHT22;11813;50.834;4.280;2023-11-21T12:47:43;12.80;99.90
23289;DHT22;11813;50.834;4.280;2023-11-21T12:50:09;12.70;99.90
23289;DHT22;11813;50.834;4.280;2023-11-21T12:52:45;12.60;99.90
23289;DHT22;11813;50.834;4.280;2023-11-21T12:55:15;12.70;99.90
23289;DHT22;11813;50.834;4.280;2023-11-21T12:57:45;12.70;99.90
23289;DHT22;11813;50.834;4.280;2023-11-21T13:00:12;12.70;99.90
23289;DHT22;11813;50.834;4.280;2023-11-21T13:02:41;12.60;99.90
23289;DHT22;11813;50.834;4.280;2023-11-21T13:05:09;12.70;99.90
23289;DHT22;11813;50.834;4.280;2023-11-21T13:07:44;12.70;99.90
23289;DHT22;11813;50.834;4.280;2023-11-21T13:10:13;12.70;99.90
23289;DHT22;11813;50.834;4.280;2023-11-21T13:12:45;12.70;99.90
23289;DHT22;11813;50.834;4.280;2023-11-21T13:15:14;12.80;99.90
23289;DHT22;11813;50.834;4.280;2023-11-21T13:17:43;12.90;99.90
23289;DHT22;11813;50.834;4.280;2023-11-21T13:20:11;12.90;99.90
23289;DHT22;11813;50.834;4.280;2023-11-21T13:22:54;12.90;99.90
23289;DHT22;11813;50.834;4.280;2023-11-21T13:25:24;13.00;99.90
23289;DHT22;11813;50.834;4.280;2023-11-21T13:27:53;13.10;99.90
23289;DHT22;11813;50.834;4.280;2023-11-21T13:30:19;13.10;99.90
23289;DHT22;11813;50.834;4.280;2023-11-21T13:32:51;13.20;99.90
23289;DHT22;11813;50.834;4.280;2023-11-21T13:35:18;13.10;99.90
23289;DHT22;11813;50.834;4.280;2023-11-21T13:37:56;13.10;99.90
23289;DHT22;11813;50.834;4.280;2023-11-21T13:40:26;13.10;99.90
23289;DHT22;11813;50.834;4.280;2023-11-21T13:42:55;13.10;99.90
23289;DHT22;11813;50.834;4.280;2023-11-21T13:45:25;12.90;99.90
23289;DHT22;11813;50.834;4.280;2023-11-21T13:47:52;12.80;99.90
23289;DHT22;11813;50.834;4.280;2023-11-21T13:50:23;12.80;99.90
23289;DHT22;11813;50.834;4.280;2023-11-21T13:52:51;12.80;99.90
23289;DHT22;11813;50.834;4.280;2023-11-21T13:55:18;12.80;99.90
23289;DHT22;11813;50.834;4.280;2023-11-21T13:57:44;12.80;99.90
23289;DHT22;11813;50.834;4.280;2023-11-21T14:00:18;12.80;99.90
23289;DHT22;11813;50.834;4.280;2023-11-21T14:03:07;12.80;99.90
23289;DHT22;11813;50.834;4.280;2023-11-21T14:05:43;12.60;99.90
23289;DHT22;11813;50.834;4.280;2023-11-21T14:08:10;12.60;99.90
23289;DHT22;11813;50.834;4.280;2023-11-21T14:10:37;12.50;99.90
23289;DHT22;11813;50.834;4.280;2023-11-21T14:13:09;12.50;99.90
23289;DHT22;11813;50.834;4.280;2023-11-21T14:15:36;12.60;99.90
23289;DHT22;11813;50.834;4.280;2023-11-21T14:18:08;12.50;99.90
23289;DHT22;11813;50.834;4.280;2023-11-21T14:20:39;12.60;99.90
23289;DHT22;11813;50.834;4.280;2023-11-21T14:23:05;12.60;99.90
23289;DHT22;11813;50.834;4.280;2023-11-21T14:25:35;12.70;99.90
23289;DHT22;11813;50.834;4.280;2023-11-21T14:28:05;12.70;99.90
23289;DHT22;11813;50.834;4.280;2023-11-21T14:30:32;12.80;99.90
23289;DHT22;11813;50.834;4.280;2023-11-21T14:33:00;12.80;99.90
23289;DHT22;11813;50.834;4.280;2023-11-21T14:35:26;12.60;99.90
23289;DHT22;11813;50.834;4.280;2023-11-21T14:37:52;12.60;99.90
23289;DHT22;11813;50.834;4.280;2023-11-21T14:40:18;12.60;99.90
23289;DHT22;11813;50.834;4.280;2023-11-21T14:42:48;12.60;99.90
23289;DHT22;11813;50.834;4.280;2023-11-21T14:45:14;12.50;99.90
23289;DHT22;11813;50.834;4.280;2023-11-21T14:47:44;12.40;99.90
23289;DHT22;11813;50.834;4.280;2023-11-21T14:50:16;12.40;99.90
23289;DHT22;11813;50.834;4.280;2023-11-21T14:53:12;12.40;99.90
23289;DHT22;11813;50.834;4.280;2023-11-21T14:55:39;12.40;99.90
23289;DHT22;11813;50.834;4.280;2023-11-21T14:58:17;12.40;99.90
23289;DHT22;11813;50.834;4.280;2023-11-21T15:00:53;12.50;99.90
23289;DHT22;11813;50.834;4.280;2023-11-21T15:03:23;12.40;99.90
23289;DHT22;11813;50.834;4.280;2023-11-21T15:06:02;12.40;99.90
23289;DHT22;11813;50.834;4.280;2023-11-21T15:08:50;12.50;99.90
23289;DHT22;11813;50.834;4.280;2023-11-21T15:11:21;12.50;99.90
23289;DHT22;11813;50.834;4.280;2023-11-21T15:13:53;12.50;99.90
23289;DHT22;11813;50.834;4.280;2023-11-21T15:16:19;12.60;99.90
23289;DHT22;11813;50.834;4.280;2023-11-21T15:18:45;12.70;99.90
23289;DHT22;11813;50.834;4.280;2023-11-21T15:21:10;12.40;99.90
23289;DHT22;11813;50.834;4.280;2023-11-21T15:23:38;12.40;99.90
23289;DHT22;11813;50.834;4.280;2023-11-21T15:26:04;12.20;99.90
23289;DHT22;11813;50.834;4.280;2023-11-21T15:28:30;12.30;99.90
23289;DHT22;11813;50.834;4.280;2023-11-21T15:30:58;12.30;99.90
23289;DHT22;11813;50.834;4.280;2023-11-21T15:33:23;12.20;99.90
23289;DHT22;11813;50.834;4.280;2023-11-21T15:35:49;12.20;99.90
23289;DHT22;11813;50.834;4.280;2023-11-21T15:38:15;12.10;99.90
23289;DHT22;11813;50.834;4.280;2023-11-21T15:40:40;12.10;99.90
23289;DHT22;11813;50.834;4.280;2023-11-21T15:43:08;12.10;99.90
23289;DHT22;11813;50.834;4.280;2023-11-21T15:45:34;12.00;99.90
23289;DHT22;11813;50.834;4.280;2023-11-21T15:47:59;12.10;99.90
23289;DHT22;11813;50.834;4.280;2023-11-21T15:50:26;12.10;99.90
23289;DHT22;11813;50.834;4.280;2023-11-21T15:52:52;11.90;99.90
23289;DHT22;11813;50.834;4.280;2023-11-21T15:55:18;11.90;99.90
23289;DHT22;11813;50.834;4.280;2023-11-21T15:57:44;11.80;99.90
23289;DHT22;11813;50.834;4.280;2023-11-21T16:00:11;11.80;99.90
23289;DHT22;11813;50.834;4.280;2023-11-21T16:02:44;11.80;99.90